sensor_id;sensor_type;location;lat;lon;timestamp;pressure;altitude;pressure_sealevel;temperature;humidity
3968;BME280;9221;42.646;23.380;2023-02-08T00:00:12;96068.06;;;-3.30;71.15
3968;BME280;9221;42.646;23.380;2023-02-08T00:02:38;96036.19;;;-3.28;70.83
3968;BME280;9221;42.646;23.380;2023-02-08T00:05:04;95969.81;;;-3.62;70.79
3968;BME280;9221;42.646;23.380;2023-02-08T00:07:29;96033.25;;;-3.11;70.91
3968;BME280;9221;42.646;23.380;2023-02-08T00:09:54;96039.28;;;-3.12;69.83
3968;BME280;9221;42.646;23.380;2023-02-08T00:12:20;95995.31;;;-3.48;69.88
3968;BME280;9221;42.646;23.380;2023-02-08T00:14:45;96092.63;;;-3.12;70.80
3968;BME280;9221;42.646;23.380;2023-02-08T00:17:11;95923.19;;;-3.93;69.61
3968;BME280;9221;42.646;23.380;2023-02-08T00:19:36;95989.22;;;-3.44;69.84
3968;BME280;9221;42.646;23.380;2023-02-08T00:22:01;96053.97;;;-3.14;69.18
3968;BME280;9221;42.646;23.380;2023-02-08T00:24:27;95979.03;;;-3.51;69.44
3968;BME280;9221;42.646;23.380;2023-02-08T00:26:52;95982.50;;;-3.51;69.92
3968;BME280;9221;42.646;23.380;2023-02-08T00:29:18;95994.31;;;-3.41;69.15
3968;BME280;9221;42.646;23.380;2023-02-08T00:31:43;95987.72;;;-3.54;69.16
3968;BME280;9221;42.646;23.380;2023-02-08T00:34:09;96098.53;;;-3.06;69.12
3968;BME280;9221;42.646;23.380;2023-02-08T00:36:34;96068.72;;;-3.20;68.98
3968;BME280;9221;42.646;23.380;2023-02-08T00:39:00;96066.09;;;-3.19;70.01
3968;BME280;9221;42.646;23.380;2023-02-08T00:41:25;96113.34;;;-3.62;70.47
3968;BME280;9221;42.646;23.380;2023-02-08T00:43:50;96105.56;;;-3.14;69.98
3968;BME280;9221;42.646;23.380;2023-02-08T00:46:16;96107.34;;;-3.17;70.10
3968;BME280;9221;42.646;23.380;2023-02-08T00:48:41;96100.41;;;-3.14;69.37
3968;BME280;9221;42.646;23.380;2023-02-08T00:51:09;96010.16;;;-3.59;70.58
3968;BME280;9221;42.646;23.380;2023-02-08T00:53:37;96062.03;;;-3.31;70.59
3968;BME280;9221;42.646;23.380;2023-02-08T00:56:03;96030.66;;;-3.53;69.85
3968;BME280;9221;42.646;23.380;2023-02-08T00:58:29;96076.41;;;-3.19;70.50
3968;BME280;9221;42.646;23.380;2023-02-08T01:00:54;95955.66;;;-3.86;70.46
3968;BME280;9221;42.646;23.380;2023-02-08T01:03:21;96121.16;;;-3.20;70.46
3968;BME280;9221;42.646;23.380;2023-02-08T01:05:47;96021.41;;;-3.63;70.68
3968;BME280;9221;42.646;23.380;2023-02-08T01:08:13;96096.19;;;-3.18;70.96
3968;BME280;9221;42.646;23.380;2023-02-08T01:10:38;96062.97;;;-3.33;70.43
3968;BME280;9221;42.646;23.380;2023-02-08T01:13:04;96083.31;;;-3.19;70.45
3968;BME280;9221;42.646;23.380;2023-02-08T01:15:29;96100.09;;;-2.98;70.65
3968;BME280;9221;42.646;23.380;2023-02-08T01:17:55;96086.88;;;-3.25;69.94
3968;BME280;9221;42.646;23.380;2023-02-08T01:20:21;96093.00;;;-2.89;70.60
3968;BME280;9221;42.646;23.380;2023-02-08T01:22:47;96120.50;;;-2.86;69.83
3968;BME280;9221;42.646;23.380;2023-02-08T01:25:12;96025.06;;;-3.31;69.52
3968;BME280;9221;42.646;23.380;2023-02-08T01:27:38;96082.91;;;-2.99;69.59
3968;BME280;9221;42.646;23.380;2023-02-08T01:30:04;96084.69;;;-3.01;70.54
3968;BME280;9221;42.646;23.380;2023-02-08T01:32:29;96078.06;;;-3.15;71.12
3968;BME280;9221;42.646;23.380;2023-02-08T01:34:55;96066.84;;;-3.12;70.62
3968;BME280;9221;42.646;23.380;2023-02-08T01:37:20;96081.53;;;-3.17;70.73
3968;BME280;9221;42.646;23.380;2023-02-08T01:39:46;96009.97;;;-3.50;71.23
3968;BME280;9221;42.646;23.380;2023-02-08T01:42:16;96071.09;;;-3.10;70.55
3968;BME280;9221;42.646;23.380;2023-02-08T01:47:23;96032.69;;;-3.25;71.00
3968;BME280;9221;42.646;23.380;2023-02-08T01:49:49;96093.03;;;-2.90;70.91
3968;BME280;9221;42.646;23.380;2023-02-08T01:52:19;96020.75;;;-3.29;71.25
3968;BME280;9221;42.646;23.380;2023-02-08T01:54:50;96056.47;;;-3.11;71.56
3968;BME280;9221;42.646;23.380;2023-02-08T01:57:16;96013.78;;;-3.69;70.55
3968;BME280;9221;42.646;23.380;2023-02-08T01:59:46;96028.41;;;-3.26;70.87
3968;BME280;9221;42.646;23.380;2023-02-08T02:02:15;96033.56;;;-3.26;71.75
3968;BME280;9221;42.646;23.380;2023-02-08T02:04:41;96153.72;;;-3.13;71.05
3968;BME280;9221;42.646;23.380;2023-02-08T02:07:07;96119.97;;;-3.02;70.81
3968;BME280;9221;42.646;23.380;2023-02-08T02:10:08;96141.22;;;-2.89;70.67
3968;BME280;9221;42.646;23.380;2023-02-08T02:12:25;96085.25;;;-2.89;71.41
3968;BME280;9221;42.646;23.380;2023-02-08T02:14:51;96140.19;;;-2.82;70.96
3968;BME280;9221;42.646;23.380;2023-02-08T02:17:18;96094.56;;;-2.80;70.58
3968;BME280;9221;42.646;23.380;2023-02-08T02:19:56;96099.72;;;-2.80;70.86
3968;BME280;9221;42.646;23.380;2023-02-08T02:23:08;96104.97;;;-2.83;71.04
3968;BME280;9221;42.646;23.380;2023-02-08T02:33:54;96047.16;;;-3.18;71.24
3968;BME280;9221;42.646;23.380;2023-02-08T02:42:11;96195.31;;;-3.31;71.48
3968;BME280;9221;42.646;23.380;2023-02-08T02:45:21;96130.63;;;-2.77;71.32
3968;BME280;9221;42.646;23.380;2023-02-08T02:50:28;96072.13;;;-3.18;71.59
3968;BME280;9221;42.646;23.380;2023-02-08T02:53:05;96131.47;;;-2.76;72.23
3968;BME280;9221;42.646;23.380;2023-02-08T02:55:34;96253.22;;;-2.99;71.77
3968;BME280;9221;42.646;23.380;2023-02-08T02:58:02;96121.16;;;-2.76;71.42
3968;BME280;9221;42.646;23.380;2023-02-08T03:00:30;96051.78;;;-3.34;71.98
3968;BME280;9221;42.646;23.380;2023-02-08T03:02:56;96158.41;;;-2.88;73.18
3968;BME280;9221;42.646;23.380;2023-02-08T03:05:23;96063.69;;;-3.27;73.11
3968;BME280;9221;42.646;23.380;2023-02-08T03:11:21;96050.78;;;-3.28;73.76
3968;BME280;9221;42.646;23.380;2023-02-08T03:16:50;96204.69;;;-2.79;74.88
3968;BME280;9221;42.646;23.380;2023-02-08T03:19:34;96135.97;;;-2.86;74.77
3968;BME280;9221;42.646;23.380;2023-02-08T03:22:01;96131.78;;;-2.92;75.21
3968;BME280;9221;42.646;23.380;2023-02-08T03:24:48;96131.06;;;-2.98;74.79
3968;BME280;9221;42.646;23.380;2023-02-08T03:27:25;96154.25;;;-2.97;74.80
3968;BME280;9221;42.646;23.380;2023-02-08T03:37:33;96181.84;;;-2.99;76.34
3968;BME280;9221;42.646;23.380;2023-02-08T03:40:06;96083.38;;;-3.24;75.75
3968;BME280;9221;42.646;23.380;2023-02-08T03:42:36;96149.72;;;-2.84;75.37
3968;BME280;9221;42.646;23.380;2023-02-08T03:45:32;96135.94;;;-2.83;75.11
3968;BME280;9221;42.646;23.380;2023-02-08T03:47:59;96154.72;;;-2.76;75.09
3968;BME280;9221;42.646;23.380;2023-02-08T03:50:30;96185.19;;;-2.94;75.46
3968;BME280;9221;42.646;23.380;2023-02-08T03:52:59;96186.84;;;-2.91;75.21
3968;BME280;9221;42.646;23.380;2023-02-08T03:55:29;96086.97;;;-3.31;75.55
3968;BME280;9221;42.646;23.380;2023-02-08T03:58:17;96083.59;;;-3.33;74.69
3968;BME280;9221;42.646;23.380;2023-02-08T04:00:53;96134.56;;;-3.02;75.15
3968;BME280;9221;42.646;23.380;2023-02-08T04:03:24;96155.91;;;-2.94;75.17
3968;BME280;9221;42.646;23.380;2023-02-08T04:05:50;96162.00;;;-2.95;75.34
3968;BME280;9221;42.646;23.380;2023-02-08T04:08:15;96187.03;;;-3.00;75.58
3968;BME280;9221;42.646;23.380;2023-02-08T04:10:41;96109.47;;;-3.40;75.84
3968;BME280;9221;42.646;23.380;2023-02-08T04:13:06;96208.00;;;-3.74;75.04
3968;BME280;9221;42.646;23.380;2023-02-08T04:15:32;96087.88;;;-3.81;75.85
3968;BME280;9221;42.646;23.380;2023-02-08T04:17:57;96181.81;;;-3.46;76.87
3968;BME280;9221;42.646;23.380;2023-02-08T04:20:23;96178.50;;;-3.54;77.08
3968;BME280;9221;42.646;23.380;2023-02-08T04:22:48;96091.56;;;-3.97;76.63
3968;BME280;9221;42.646;23.380;2023-02-08T04:25:14;96130.00;;;-3.83;77.43
3968;BME280;9221;42.646;23.380;2023-02-08T04:27:39;96105.03;;;-3.80;76.94
3968;BME280;9221;42.646;23.380;2023-02-08T04:30:05;96173.59;;;-3.69;76.70
3968;BME280;9221;42.646;23.380;2023-02-08T04:32:31;96198.66;;;-3.79;77.25
3968;BME280;9221;42.646;23.380;2023-02-08T04:34:57;96204.75;;;-3.85;78.27
3968;BME280;9221;42.646;23.380;2023-02-08T04:37:22;96090.50;;;-4.38;77.59
3968;BME280;9221;42.646;23.380;2023-02-08T04:39:48;96156.84;;;-3.98;78.29
3968;BME280;9221;42.646;23.380;2023-02-08T04:42:13;96221.94;;;-3.84;78.00
3968;BME280;9221;42.646;23.380;2023-02-08T04:44:39;96111.16;;;-4.43;78.41
3968;BME280;9221;42.646;23.380;2023-02-08T04:47:04;96113.19;;;-4.65;79.33
3968;BME280;9221;42.646;23.380;2023-02-08T04:49:29;96180.97;;;-4.68;80.85
3968;BME280;9221;42.646;23.380;2023-02-08T04:51:55;96199.38;;;-5.03;82.46
3968;BME280;9221;42.646;23.380;2023-02-08T04:54:20;96230.13;;;-4.88;82.48
3968;BME280;9221;42.646;23.380;2023-02-08T04:56:46;96202.81;;;-5.04;84.54
3968;BME280;9221;42.646;23.380;2023-02-08T04:59:11;96238.78;;;-4.98;84.36
3968;BME280;9221;42.646;23.380;2023-02-08T05:01:36;96225.47;;;-4.60;83.74
3968;BME280;9221;42.646;23.380;2023-02-08T05:04:02;96208.88;;;-4.34;83.28
3968;BME280;9221;42.646;23.380;2023-02-08T05:06:27;96255.06;;;-4.21;82.65
3968;BME280;9221;42.646;23.380;2023-02-08T05:08:53;96247.34;;;-4.21;81.80
3968;BME280;9221;42.646;23.380;2023-02-08T05:11:19;96224.25;;;-4.29;81.48
3968;BME280;9221;42.646;23.380;2023-02-08T05:13:45;96239.09;;;-4.50;82.34
3968;BME280;9221;42.646;23.380;2023-02-08T05:16:10;96158.19;;;-4.97;82.00
3968;BME280;9221;42.646;23.380;2023-02-08T05:18:35;96171.13;;;-5.05;82.96
3968;BME280;9221;42.646;23.380;2023-02-08T05:21:01;96276.09;;;-4.57;82.71
3968;BME280;9221;42.646;23.380;2023-02-08T05:23:28;96181.13;;;-4.80;82.53
3968;BME280;9221;42.646;23.380;2023-02-08T05:25:54;96281.13;;;-4.46;82.91
3968;BME280;9221;42.646;23.380;2023-02-08T05:28:20;96272.69;;;-4.62;82.51
3968;BME280;9221;42.646;23.380;2023-02-08T05:30:45;96268.50;;;-4.71;83.15
3968;BME280;9221;42.646;23.380;2023-02-08T05:33:11;96282.94;;;-4.56;82.86
3968;BME280;9221;42.646;23.380;2023-02-08T05:35:36;96246.09;;;-4.61;82.73
3968;BME280;9221;42.646;23.380;2023-02-08T05:38:02;96185.72;;;-5.05;83.28
3968;BME280;9221;42.646;23.380;2023-02-08T05:40:27;96178.94;;;-5.16;83.71
3968;BME280;9221;42.646;23.380;2023-02-08T05:42:52;96213.06;;;-4.98;84.14
3968;BME280;9221;42.646;23.380;2023-02-08T05:45:18;96176.38;;;-5.17;83.72
3968;BME280;9221;42.646;23.380;2023-02-08T05:47:43;96266.75;;;-4.69;83.15
3968;BME280;9221;42.646;23.380;2023-02-08T05:50:12;96267.47;;;-4.53;82.68
3968;BME280;9221;42.646;23.380;2023-02-08T05:52:37;96265.72;;;-4.51;82.33
3968;BME280;9221;42.646;23.380;2023-02-08T05:55:03;96295.72;;;-4.50;81.97
3968;BME280;9221;42.646;23.380;2023-02-08T05:57:28;96277.06;;;-4.70;81.96
3968;BME280;9221;42.646;23.380;2023-02-08T05:59:54;96351.28;;;-4.27;82.09
3968;BME280;9221;42.646;23.380;2023-02-08T06:02:19;96263.06;;;-4.45;81.90
3968;BME280;9221;42.646;23.380;2023-02-08T06:04:44;96262.50;;;-4.68;83.05
3968;BME280;9221;42.646;23.380;2023-02-08T06:07:10;96247.22;;;-4.85;83.79
3968;BME280;9221;42.646;23.380;2023-02-08T06:09:36;96245.72;;;-5.06;84.15
3968;BME280;9221;42.646;23.380;2023-02-08T06:12:01;96273.25;;;-5.18;85.00
3968;BME280;9221;42.646;23.380;2023-02-08T06:14:27;96278.41;;;-5.21;85.39
3968;BME280;9221;42.646;23.380;2023-02-08T06:16:52;96262.94;;;-5.15;86.13
3968;BME280;9221;42.646;23.380;2023-02-08T06:19:17;96248.41;;;-5.19;85.92
3968;BME280;9221;42.646;23.380;2023-02-08T06:21:43;96264.50;;;-4.98;86.24
3968;BME280;9221;42.646;23.380;2023-02-08T06:24:08;96267.09;;;-5.00;86.51
3968;BME280;9221;42.646;23.380;2023-02-08T06:26:35;96266.75;;;-4.66;85.94
3968;BME280;9221;42.646;23.380;2023-02-08T06:29:01;96194.91;;;-4.84;85.59
3968;BME280;9221;42.646;23.380;2023-02-08T06:31:27;96326.41;;;-4.28;84.49
3968;BME280;9221;42.646;23.380;2023-02-08T06:33:52;96306.44;;;-4.11;84.52
3968;BME280;9221;42.646;23.380;2023-02-08T06:36:17;96201.88;;;-4.24;83.23
3968;BME280;9221;42.646;23.380;2023-02-08T06:38:43;96273.97;;;-3.60;83.15
3968;BME280;9221;42.646;23.380;2023-02-08T06:41:08;96278.50;;;-3.18;82.70
3968;BME280;9221;42.646;23.380;2023-02-08T06:43:34;96266.16;;;-3.01;81.70
3968;BME280;9221;42.646;23.380;2023-02-08T06:45:59;96347.50;;;-2.77;79.92
3968;BME280;9221;42.646;23.380;2023-02-08T06:48:26;96208.81;;;-3.17;78.96
3968;BME280;9221;42.646;23.380;2023-02-08T06:50:51;96318.09;;;-2.69;77.96
3968;BME280;9221;42.646;23.380;2023-02-08T06:53:19;96207.72;;;-3.05;78.36
3968;BME280;9221;42.646;23.380;2023-02-08T06:55:49;96309.72;;;-2.35;78.27
3968;BME280;9221;42.646;23.380;2023-02-08T06:58:14;96204.91;;;-2.46;77.07
3968;BME280;9221;42.646;23.380;2023-02-08T07:00:40;96319.72;;;-1.75;76.34
3968;BME280;9221;42.646;23.380;2023-02-08T07:03:06;96279.41;;;-1.44;74.87
3968;BME280;9221;42.646;23.380;2023-02-08T07:05:34;96264.13;;;-1.55;73.75
3968;BME280;9221;42.646;23.380;2023-02-08T07:07:59;96218.66;;;-1.65;72.97
3968;BME280;9221;42.646;23.380;2023-02-08T07:10:25;96234.50;;;-1.42;72.40
3968;BME280;9221;42.646;23.380;2023-02-08T07:12:50;96266.97;;;-1.28;72.27
3968;BME280;9221;42.646;23.380;2023-02-08T07:15:16;96277.22;;;-1.25;73.11
3968;BME280;9221;42.646;23.380;2023-02-08T07:17:41;96161.53;;;-1.92;71.96
3968;BME280;9221;42.646;23.380;2023-02-08T07:20:07;96285.25;;;-0.65;71.32
3968;BME280;9221;42.646;23.380;2023-02-08T07:22:33;96298.81;;;-0.56;70.06
3968;BME280;9221;42.646;23.380;2023-02-08T07:24:59;96316.72;;;-0.48;69.97
3968;BME280;9221;42.646;23.380;2023-02-08T07:27:24;96314.53;;;-0.63;69.50
3968;BME280;9221;42.646;23.380;2023-02-08T07:29:49;96335.50;;;-0.73;70.29
3968;BME280;9221;42.646;23.380;2023-02-08T07:32:15;96312.25;;;-0.10;69.57
3968;BME280;9221;42.646;23.380;2023-02-08T07:34:40;96260.34;;;-0.07;67.59
3968;BME280;9221;42.646;23.380;2023-02-08T07:37:06;96352.28;;;0.43;66.63
3968;BME280;9221;42.646;23.380;2023-02-08T07:39:32;96350.69;;;0.39;65.56
3968;BME280;9221;42.646;23.380;2023-02-08T07:41:58;96322.38;;;0.59;64.75
3968;BME280;9221;42.646;23.380;2023-02-08T07:44:23;96244.94;;;-0.13;64.99
3968;BME280;9221;42.646;23.380;2023-02-08T07:46:49;96318.19;;;0.25;65.71
3968;BME280;9221;42.646;23.380;2023-02-08T07:49:15;96345.03;;;0.54;64.06
3968;BME280;9221;42.646;23.380;2023-02-08T07:51:40;96339.75;;;0.86;62.72
3968;BME280;9221;42.646;23.380;2023-02-08T07:54:06;96339.91;;;0.81;61.88
3968;BME280;9221;42.646;23.380;2023-02-08T07:56:31;96335.63;;;1.33;60.43
3968;BME280;9221;42.646;23.380;2023-02-08T07:58:57;96297.88;;;1.48;59.76
3968;BME280;9221;42.646;23.380;2023-02-08T08:01:22;96312.72;;;1.95;58.71
3968;BME280;9221;42.646;23.380;2023-02-08T08:03:49;96251.16;;;1.96;57.08
3968;BME280;9221;42.646;23.380;2023-02-08T08:06:15;96315.38;;;2.19;56.74
3968;BME280;9221;42.646;23.380;2023-02-08T08:08:40;96242.84;;;1.86;57.48
3968;BME280;9221;42.646;23.380;2023-02-08T08:11:07;96342.72;;;2.29;57.30
3968;BME280;9221;42.646;23.380;2023-02-08T08:13:32;96297.13;;;2.65;56.58
3968;BME280;9221;42.646;23.380;2023-02-08T08:15:58;96241.69;;;2.41;54.58
3968;BME280;9221;42.646;23.380;2023-02-08T08:18:23;96297.75;;;2.94;54.06
3968;BME280;9221;42.646;23.380;2023-02-08T08:20:48;96291.53;;;3.18;53.79
3968;BME280;9221;42.646;23.380;2023-02-08T08:23:14;96248.31;;;2.92;53.78
3968;BME280;9221;42.646;23.380;2023-02-08T08:25:40;96317.72;;;3.37;52.64
3968;BME280;9221;42.646;23.380;2023-02-08T08:28:06;96304.56;;;3.61;52.51
3968;BME280;9221;42.646;23.380;2023-02-08T08:30:31;96347.75;;;3.68;50.88
3968;BME280;9221;42.646;23.380;2023-02-08T08:32:57;96239.38;;;3.41;50.52
3968;BME280;9221;42.646;23.380;2023-02-08T08:35:22;96230.50;;;3.65;49.72
3968;BME280;9221;42.646;23.380;2023-02-08T08:37:47;96309.88;;;4.20;49.22
3968;BME280;9221;42.646;23.380;2023-02-08T08:40:13;96143.78;;;3.00;48.75
3968;BME280;9221;42.646;23.380;2023-02-08T08:42:38;96323.84;;;4.19;49.02
3968;BME280;9221;42.646;23.380;2023-02-08T08:45:05;96308.75;;;4.45;49.01
3968;BME280;9221;42.646;23.380;2023-02-08T08:47:31;96308.25;;;4.74;48.46
3968;BME280;9221;42.646;23.380;2023-02-08T08:49:56;96326.47;;;4.95;46.89
3968;BME280;9221;42.646;23.380;2023-02-08T08:52:22;96322.34;;;5.08;46.88
3968;BME280;9221;42.646;23.380;2023-02-08T08:54:47;96305.56;;;4.95;45.61
3968;BME280;9221;42.646;23.380;2023-02-08T08:57:12;96264.41;;;4.62;45.33
3968;BME280;9221;42.646;23.380;2023-02-08T08:59:38;96298.16;;;4.48;46.59
3968;BME280;9221;42.646;23.380;2023-02-08T09:02:03;96354.28;;;4.39;46.19
3968;BME280;9221;42.646;23.380;2023-02-08T09:04:29;96278.13;;;3.89;47.54
3968;BME280;9221;42.646;23.380;2023-02-08T09:06:54;96334.50;;;4.52;47.69
3968;BME280;9221;42.646;23.380;2023-02-08T09:09:20;96370.81;;;4.58;46.31
3968;BME280;9221;42.646;23.380;2023-02-08T09:11:47;96290.81;;;4.56;45.47
3968;BME280;9221;42.646;23.380;2023-02-08T09:14:12;96302.09;;;4.18;45.86
3968;BME280;9221;42.646;23.380;2023-02-08T09:16:42;96341.63;;;3.90;47.17
3968;BME280;9221;42.646;23.380;2023-02-08T09:19:11;96430.59;;;2.95;50.31
3968;BME280;9221;42.646;23.380;2023-02-08T09:21:38;96390.81;;;3.99;49.06
3968;BME280;9221;42.646;23.380;2023-02-08T09:24:05;96353.75;;;4.70;46.86
3968;BME280;9221;42.646;23.380;2023-02-08T09:26:30;96363.19;;;4.92;46.48
3968;BME280;9221;42.646;23.380;2023-02-08T09:28:56;96359.50;;;5.52;44.54
3968;BME280;9221;42.646;23.380;2023-02-08T09:31:26;96229.00;;;4.37;44.80
3968;BME280;9221;42.646;23.380;2023-02-08T09:33:55;96275.91;;;5.31;44.07
3968;BME280;9221;42.646;23.380;2023-02-08T09:36:23;96386.94;;;5.80;43.84
3968;BME280;9221;42.646;23.380;2023-02-08T09:38:49;96443.41;;;5.11;44.76
3968;BME280;9221;42.646;23.380;2023-02-08T09:44:45;96327.66;;;3.91;46.54
3968;BME280;9221;42.646;23.380;2023-02-08T09:47:20;96138.81;;;3.92;45.43
3968;BME280;9221;42.646;23.380;2023-02-08T09:55:20;96355.66;;;8.03;40.86
3968;BME280;9221;42.646;23.380;2023-02-08T09:57:52;96274.22;;;7.89;38.48
3968;BME280;9221;42.646;23.380;2023-02-08T10:00:26;96331.63;;;6.70;39.68
3968;BME280;9221;42.646;23.380;2023-02-08T10:02:56;96337.84;;;6.52;40.85
3968;BME280;9221;42.646;23.380;2023-02-08T10:05:25;96333.78;;;5.95;42.07
3968;BME280;9221;42.646;23.380;2023-02-08T10:07:51;96344.41;;;4.84;42.80
3968;BME280;9221;42.646;23.380;2023-02-08T10:13:21;96193.75;;;2.00;49.11
3968;BME280;9221;42.646;23.380;2023-02-08T10:16:00;96327.31;;;3.78;46.86
3968;BME280;9221;42.646;23.380;2023-02-08T10:18:43;96261.19;;;3.79;45.15
3968;BME280;9221;42.646;23.380;2023-02-08T10:21:25;96330.66;;;3.41;47.25
3968;BME280;9221;42.646;23.380;2023-02-08T10:25:24;96328.94;;;4.01;45.32
3968;BME280;9221;42.646;23.380;2023-02-08T10:28:09;96287.91;;;4.81;44.20
3968;BME280;9221;42.646;23.380;2023-02-08T10:30:34;96291.22;;;5.21;43.13
3968;BME280;9221;42.646;23.380;2023-02-08T10:33:25;96330.19;;;5.80;41.83
3968;BME280;9221;42.646;23.380;2023-02-08T10:35:52;96250.19;;;4.87;42.54
3968;BME280;9221;42.646;23.380;2023-02-08T10:40:45;96326.69;;;4.71;43.81
3968;BME280;9221;42.646;23.380;2023-02-08T10:46:30;96324.69;;;4.38;44.22
3968;BME280;9221;42.646;23.380;2023-02-08T10:51:45;96333.88;;;4.28;44.28
3968;BME280;9221;42.646;23.380;2023-02-08T10:54:14;96300.97;;;2.56;46.50
3968;BME280;9221;42.646;23.380;2023-02-08T10:59:21;96263.28;;;1.72;48.57
3968;BME280;9221;42.646;23.380;2023-02-08T11:01:49;96334.00;;;2.54;48.87
3968;BME280;9221;42.646;23.380;2023-02-08T11:04:15;96369.09;;;2.67;47.71
3968;BME280;9221;42.646;23.380;2023-02-08T11:06:42;96277.09;;;2.45;47.47
3968;BME280;9221;42.646;23.380;2023-02-08T11:09:29;96336.13;;;2.90;47.14
3968;BME280;9221;42.646;23.380;2023-02-08T11:11:59;96273.75;;;2.41;45.74
3968;BME280;9221;42.646;23.380;2023-02-08T11:14:34;96333.25;;;2.74;45.96
3968;BME280;9221;42.646;23.380;2023-02-08T11:17:01;96322.72;;;2.77;46.70
3968;BME280;9221;42.646;23.380;2023-02-08T11:19:37;96329.16;;;2.91;47.34
3968;BME280;9221;42.646;23.380;2023-02-08T11:22:14;96266.53;;;2.26;48.65
3968;BME280;9221;42.646;23.380;2023-02-08T11:24:40;96332.00;;;2.39;49.36
3968;BME280;9221;42.646;23.380;2023-02-08T11:27:33;96261.91;;;1.36;48.80
3968;BME280;9221;42.646;23.380;2023-02-08T11:30:25;96326.09;;;2.10;49.81
3968;BME280;9221;42.646;23.380;2023-02-08T11:33:13;96334.13;;;2.51;48.44
3968;BME280;9221;42.646;23.380;2023-02-08T11:35:39;96310.59;;;2.07;49.94
3968;BME280;9221;42.646;23.380;2023-02-08T11:38:05;96331.47;;;2.05;52.08
3968;BME280;9221;42.646;23.380;2023-02-08T11:40:34;96333.97;;;1.83;52.55
3968;BME280;9221;42.646;23.380;2023-02-08T11:43:01;96253.13;;;1.40;52.10
3968;BME280;9221;42.646;23.380;2023-02-08T11:45:30;96268.41;;;1.49;52.16
3968;BME280;9221;42.646;23.380;2023-02-08T11:47:56;96262.69;;;0.86;54.72
3968;BME280;9221;42.646;23.380;2023-02-08T11:50:31;96358.88;;;0.83;55.48
3968;BME280;9221;42.646;23.380;2023-02-08T11:53:03;96327.16;;;1.01;54.20
3968;BME280;9221;42.646;23.380;2023-02-08T11:55:31;96334.41;;;0.33;53.02
3968;BME280;9221;42.646;23.380;2023-02-08T11:58:04;96356.00;;;0.92;54.18
3968;BME280;9221;42.646;23.380;2023-02-08T12:00:35;96379.88;;;1.04;54.35
3968;BME280;9221;42.646;23.380;2023-02-08T12:03:04;96337.25;;;1.11;53.07
3968;BME280;9221;42.646;23.380;2023-02-08T12:08:39;96396.09;;;1.12;53.06
3968;BME280;9221;42.646;23.380;2023-02-08T12:19:19;96330.59;;;0.45;55.58
3968;BME280;9221;42.646;23.380;2023-02-08T12:22:27;96335.84;;;0.42;56.17
3968;BME280;9221;42.646;23.380;2023-02-08T12:36:01;96373.06;;;0.43;55.80
3968;BME280;9221;42.646;23.380;2023-02-08T12:46:56;96348.34;;;0.29;55.56
3968;BME280;9221;42.646;23.380;2023-02-08T12:49:45;96411.72;;;0.52;54.88
3968;BME280;9221;42.646;23.380;2023-02-08T12:52:43;96336.75;;;0.71;54.41
3968;BME280;9221;42.646;23.380;2023-02-08T12:57:42;96359.63;;;0.58;52.75
3968;BME280;9221;42.646;23.380;2023-02-08T13:00:24;96323.91;;;0.66;52.13
3968;BME280;9221;42.646;23.380;2023-02-08T13:05:24;96399.63;;;0.81;52.50
3968;BME280;9221;42.646;23.380;2023-02-08T13:08:00;96337.25;;;0.54;52.51
3968;BME280;9221;42.646;23.380;2023-02-08T13:10:37;96356.28;;;0.83;51.18
3968;BME280;9221;42.646;23.380;2023-02-08T13:13:16;96394.25;;;0.87;51.23
3968;BME280;9221;42.646;23.380;2023-02-08T13:18:43;96362.03;;;0.93;51.59
3968;BME280;9221;42.646;23.380;2023-02-08T13:21:16;96395.34;;;0.80;50.22
3968;BME280;9221;42.646;23.380;2023-02-08T13:23:46;96287.06;;;0.25;50.51
3968;BME280;9221;42.646;23.380;2023-02-08T13:26:25;96298.59;;;-0.15;49.63
3968;BME280;9221;42.646;23.380;2023-02-08T13:28:56;96364.44;;;0.41;49.52
3968;BME280;9221;42.646;23.380;2023-02-08T13:34:01;96407.06;;;0.01;50.23
3968;BME280;9221;42.646;23.380;2023-02-08T13:36:35;96376.97;;;0.26;50.40
3968;BME280;9221;42.646;23.380;2023-02-08T13:39:04;96289.53;;;-0.31;50.06
3968;BME280;9221;42.646;23.380;2023-02-08T13:41:31;96377.31;;;0.14;50.11
3968;BME280;9221;42.646;23.380;2023-02-08T13:44:03;96411.88;;;0.46;50.23
3968;BME280;9221;42.646;23.380;2023-02-08T13:46:43;96312.81;;;0.31;50.23
3968;BME280;9221;42.646;23.380;2023-02-08T14:03:31;96395.44;;;0.15;53.46
3968;BME280;9221;42.646;23.380;2023-02-08T14:06:00;96389.38;;;0.15;54.70
3968;BME280;9221;42.646;23.380;2023-02-08T14:08:35;96319.97;;;-0.40;54.30
3968;BME280;9221;42.646;23.380;2023-02-08T14:14:17;96393.94;;;0.07;55.50
3968;BME280;9221;42.646;23.380;2023-02-08T14:19:29;96429.44;;;0.05;54.53
3968;BME280;9221;42.646;23.380;2023-02-08T14:22:14;96379.91;;;-0.18;55.30
3968;BME280;9221;42.646;23.380;2023-02-08T14:24:44;96328.00;;;-0.49;56.26
3968;BME280;9221;42.646;23.380;2023-02-08T14:27:25;96485.41;;;-0.21;56.07
3968;BME280;9221;42.646;23.380;2023-02-08T14:32:33;96338.56;;;-0.57;56.75
3968;BME280;9221;42.646;23.380;2023-02-08T14:35:07;96435.19;;;-0.17;56.66
3968;BME280;9221;42.646;23.380;2023-02-08T14:37:34;96446.34;;;-0.13;56.58
3968;BME280;9221;42.646;23.380;2023-02-08T14:45:47;96335.44;;;-1.06;59.09
3968;BME280;9221;42.646;23.380;2023-02-08T14:48:29;96454.19;;;-0.53;58.60
3968;BME280;9221;42.646;23.380;2023-02-08T14:51:05;96408.97;;;-0.39;59.09
3968;BME280;9221;42.646;23.380;2023-02-08T14:58:59;96347.13;;;-0.89;59.17
3968;BME280;9221;42.646;23.380;2023-02-08T15:01:39;96396.69;;;-0.69;59.00
3968;BME280;9221;42.646;23.380;2023-02-08T15:04:05;96456.91;;;-0.57;58.89
3968;BME280;9221;42.646;23.380;2023-02-08T15:09:17;96337.50;;;-1.20;58.76
3968;BME280;9221;42.646;23.380;2023-02-08T15:11:49;96355.66;;;-1.22;59.06
3968;BME280;9221;42.646;23.380;2023-02-08T15:14:18;96412.09;;;-0.98;59.78
3968;BME280;9221;42.646;23.380;2023-02-08T15:16:44;96425.81;;;-0.95;59.32
3968;BME280;9221;42.646;23.380;2023-02-08T15:19:21;96420.06;;;-1.08;59.12
3968;BME280;9221;42.646;23.380;2023-02-08T15:21:47;96483.69;;;-0.97;59.96
3968;BME280;9221;42.646;23.380;2023-02-08T15:24:23;96306.59;;;-1.65;59.18
3968;BME280;9221;42.646;23.380;2023-02-08T15:26:55;96419.63;;;-0.89;59.99
3968;BME280;9221;42.646;23.380;2023-02-08T15:29:26;96385.66;;;-1.13;58.71
3968;BME280;9221;42.646;23.380;2023-02-08T15:31:52;96508.38;;;-0.81;58.58
3968;BME280;9221;42.646;23.380;2023-02-08T15:34:20;96373.00;;;-1.25;59.08
3968;BME280;9221;42.646;23.380;2023-02-08T15:36:54;96429.44;;;-1.02;59.48
3968;BME280;9221;42.646;23.380;2023-02-08T15:39:32;96427.16;;;-1.16;59.31